Mc Knightstown, Pennsylvania
Current Conditions -  °F | °C
As of 8:53 AM on Sunday 23 Nov 2014 (Local Time) from KRYT Reporting Station
Clear Clear  
Wind Chill: 37°   Ceiling: Unl
Heat Index: 37°   Visibility: 10mi
Dew Point: 22°   Wind: 0mph
Humidity: 54%   Direction: NA
Pressure: 30.17"   Gusts: NA
Location:  39.8752°N, 77.3219°W
Report Text: KRYT 231353Z AUTO 00000KT 10SM CLR 03/M06 A3017 RMK AO2 SLP229 T00281056 $
Loading
Personal Weather Stations






























Interactive Weather Map New forecast layout! Learn more

10-Day Weather Forecast

Advertisements
Track Severe Weather on mobile